createdAt,value
2023-01-12T00:02:28.501Z,1.80
2023-01-12T00:04:57.197Z,1.80
2023-01-12T00:07:25.826Z,1.90
2023-01-12T00:09:54.388Z,1.90
2023-01-12T00:12:23.006Z,1.90
2023-01-12T00:14:52.122Z,1.80
2023-01-12T00:17:22.870Z,1.80
2023-01-12T00:19:51.624Z,1.80
2023-01-12T00:22:20.659Z,1.80
2023-01-12T00:24:50.278Z,1.80
2023-01-12T00:27:20.706Z,1.80
2023-01-12T00:29:50.110Z,1.90
2023-01-12T00:32:21.932Z,1.80
2023-01-12T00:34:50.547Z,1.90
2023-01-12T00:37:20.783Z,1.80
2023-01-12T00:40:01.453Z,1.80
2023-01-12T00:42:48.123Z,1.80
2023-01-12T00:45:22.747Z,1.80
2023-01-12T00:47:53.510Z,1.80
2023-01-12T00:50:22.234Z,1.80
2023-01-12T00:52:50.906Z,1.80
2023-01-12T00:55:19.616Z,1.90
2023-01-12T00:57:48.275Z,1.90
2023-01-12T01:00:18.237Z,1.90
2023-01-12T01:02:47.088Z,1.80
2023-01-12T01:05:17.893Z,1.80
2023-01-12T01:07:47.556Z,1.80
2023-01-12T01:10:16.461Z,1.80
2023-01-12T01:12:45.589Z,1.80
2023-01-12T01:15:14.263Z,1.80
2023-01-12T01:17:43.090Z,1.80
2023-01-12T01:20:13.155Z,1.70
2023-01-12T01:22:43.348Z,1.80
2023-01-12T01:25:12.009Z,1.70
2023-01-12T01:27:40.705Z,1.70
2023-01-12T01:30:11.309Z,1.70
2023-01-12T01:32:39.938Z,1.80
2023-01-12T01:35:09.424Z,1.70
2023-01-12T01:37:38.062Z,1.70
2023-01-12T01:40:10.185Z,1.70
2023-01-12T01:42:39.549Z,1.70
2023-01-12T01:45:13.492Z,1.70
2023-01-12T01:47:46.124Z,1.70
2023-01-12T01:50:19.475Z,1.70
2023-01-12T01:52:53.588Z,1.80
2023-01-12T01:55:25.985Z,1.80
2023-01-12T01:57:58.059Z,1.70
2023-01-12T02:00:27.161Z,1.70
2023-01-12T02:02:56.656Z,1.70
2023-01-12T02:05:28.762Z,1.70
2023-01-12T02:08:03.363Z,1.70
2023-01-12T02:10:33.677Z,1.80
2023-01-12T02:13:19.894Z,1.80
2023-01-12T02:16:20.653Z,1.80
2023-01-12T02:18:57.492Z,1.80
2023-01-12T02:21:53.319Z,1.80
2023-01-12T02:24:46.349Z,1.70
2023-01-12T02:27:43.391Z,1.80
2023-01-12T02:30:42.032Z,1.70
2023-01-12T02:33:30.477Z,1.80
2023-01-12T02:36:04.302Z,1.70
2023-01-12T02:38:39.309Z,1.70
2023-01-12T02:41:16.585Z,1.70
2023-01-12T02:43:44.687Z,1.80
2023-01-12T02:46:20.057Z,1.70
2023-01-12T02:48:55.052Z,1.70
2023-01-12T02:51:29.323Z,1.70
2023-01-12T02:54:02.433Z,1.70
2023-01-12T02:56:34.498Z,1.70
2023-01-12T02:59:06.835Z,1.70
2023-01-12T03:01:37.870Z,1.70
2023-01-12T03:04:09.252Z,1.70
2023-01-12T03:06:45.648Z,1.70
2023-01-12T03:09:18.364Z,1.70
2023-01-12T03:11:50.726Z,1.70
2023-01-12T03:14:19.470Z,1.70
2023-01-12T03:16:48.146Z,1.70
2023-01-12T03:19:22.051Z,1.70
2023-01-12T03:21:53.195Z,1.70
2023-01-12T03:24:26.855Z,1.70
2023-01-12T03:27:06.667Z,1.70
2023-01-12T03:29:38.411Z,1.70
2023-01-12T03:32:07.945Z,1.70
2023-01-12T03:34:39.103Z,1.70
2023-01-12T03:37:13.004Z,1.70
2023-01-12T03:39:51.463Z,1.70
2023-01-12T03:42:27.415Z,1.70
2023-01-12T03:45:09.911Z,1.60
2023-01-12T03:47:40.834Z,1.60
2023-01-12T03:50:16.752Z,1.60
2023-01-12T03:52:47.415Z,1.60
2023-01-12T03:55:19.439Z,1.50
2023-01-12T03:57:48.917Z,1.50
2023-01-12T04:00:20.788Z,1.50
2023-01-12T04:02:49.370Z,1.50
2023-01-12T04:05:19.430Z,1.50
2023-01-12T04:07:48.058Z,1.50
2023-01-12T04:10:17.334Z,1.50
2023-01-12T04:12:45.947Z,1.50
2023-01-12T04:15:15.273Z,1.50
2023-01-12T04:17:43.930Z,1.40
2023-01-12T04:20:13.490Z,1.40
2023-01-12T04:22:45.710Z,1.40
2023-01-12T04:25:15.771Z,1.50
2023-01-12T04:27:47.924Z,1.50
2023-01-12T04:30:18.927Z,1.50
2023-01-12T04:32:47.749Z,1.40
2023-01-12T04:35:17.436Z,1.40
2023-01-12T04:37:48.580Z,1.40
2023-01-12T04:40:18.840Z,1.40
2023-01-12T04:43:07.410Z,1.40
2023-01-12T04:45:39.877Z,1.40
2023-01-12T04:48:10.730Z,1.30
2023-01-12T04:50:40.093Z,1.30
2023-01-12T04:53:12.712Z,1.40
2023-01-12T04:55:43.585Z,1.30
2023-01-12T04:58:12.340Z,1.40
2023-01-12T05:00:40.952Z,1.40
2023-01-12T05:03:13.258Z,1.40
2023-01-12T05:05:42.372Z,1.40
2023-01-12T05:08:30.059Z,1.40
2023-01-12T05:11:00.608Z,1.40
2023-01-12T05:13:32.814Z,1.40
2023-01-12T05:16:10.755Z,1.50
2023-01-12T05:18:39.484Z,1.40
2023-01-12T05:21:08.151Z,1.40
2023-01-12T05:23:38.367Z,1.40
2023-01-12T05:26:07.992Z,1.40
2023-01-12T05:28:36.853Z,1.50
2023-01-12T05:31:08.143Z,1.40
2023-01-12T05:33:37.836Z,1.50
2023-01-12T05:36:07.283Z,1.40
2023-01-12T05:38:37.535Z,1.40
2023-01-12T05:41:08.052Z,1.40
2023-01-12T05:43:50.955Z,1.40
2023-01-12T05:46:21.497Z,1.40
2023-01-12T05:48:51.251Z,1.50
2023-01-12T05:51:19.872Z,1.50
2023-01-12T05:53:50.221Z,1.50
2023-01-12T05:56:20.815Z,1.40
2023-01-12T05:58:53.376Z,1.40
2023-01-12T06:01:22.786Z,1.40
2023-01-12T06:03:51.995Z,1.40
2023-01-12T06:06:21.971Z,1.50
2023-01-12T06:08:52.825Z,1.50
2023-01-12T06:11:39.212Z,1.50
2023-01-12T06:14:08.700Z,1.50
2023-01-12T06:16:39.556Z,1.50
2023-01-12T06:19:08.546Z,1.40
2023-01-12T06:21:37.884Z,1.40
2023-01-12T06:24:08.948Z,1.40
2023-01-12T06:26:37.553Z,1.40
2023-01-12T06:29:07.383Z,1.40
2023-01-12T06:31:37.256Z,1.50
2023-01-12T06:34:07.728Z,1.40
2023-01-12T06:36:37.023Z,1.50
2023-01-12T06:39:07.264Z,1.40
2023-01-12T06:41:53.840Z,1.50
2023-01-12T06:44:22.566Z,1.40
2023-01-12T06:46:51.137Z,1.50
2023-01-12T06:49:19.965Z,1.50
2023-01-12T06:51:51.551Z,1.60
2023-01-12T06:54:22.420Z,1.60
2023-01-12T06:56:51.057Z,1.50
2023-01-12T06:59:19.677Z,1.50
2023-01-12T07:01:48.524Z,1.50
2023-01-12T07:04:17.274Z,1.50
2023-01-12T07:06:45.924Z,1.60
2023-01-12T07:09:14.528Z,1.60
2023-01-12T07:11:44.576Z,1.60
2023-01-12T07:14:13.164Z,1.60
2023-01-12T07:16:41.798Z,1.60
2023-01-12T07:19:10.493Z,1.60
2023-01-12T07:21:39.138Z,1.70
2023-01-12T07:24:08.231Z,1.60
2023-01-12T07:26:37.154Z,1.70
2023-01-12T07:29:07.350Z,1.80
2023-01-12T07:31:35.983Z,1.70
2023-01-12T07:34:04.632Z,1.70
2023-01-12T07:36:34.000Z,1.70
2023-01-12T07:39:02.797Z,1.70
2023-01-12T07:41:48.875Z,1.70
2023-01-12T07:44:18.921Z,1.70
2023-01-12T07:46:47.593Z,1.80
2023-01-12T07:49:16.515Z,1.80
2023-01-12T07:51:45.131Z,1.80
2023-01-12T07:54:13.741Z,1.80
2023-01-12T07:56:44.383Z,1.80
2023-01-12T07:59:13.153Z,1.80
2023-01-12T08:01:43.197Z,1.80
2023-01-12T08:04:11.898Z,1.80
2023-01-12T08:06:40.455Z,1.90
2023-01-12T08:09:09.031Z,1.90
2023-01-12T08:11:39.033Z,1.80
2023-01-12T08:14:07.747Z,1.90
2023-01-12T08:16:39.503Z,1.90
2023-01-12T08:19:14.549Z,1.90
2023-01-12T08:21:47.185Z,1.90
2023-01-12T08:24:19.103Z,1.90
2023-01-12T08:26:50.006Z,2.00
2023-01-12T08:29:23.448Z,2.00
2023-01-12T08:31:52.005Z,1.90
2023-01-12T08:34:21.996Z,1.90
2023-01-12T08:36:50.542Z,1.90
2023-01-12T08:39:19.342Z,1.90
2023-01-12T08:41:48.222Z,1.90
2023-01-12T08:44:16.776Z,2.00
2023-01-12T08:46:49.256Z,2.00
2023-01-12T08:49:19.105Z,2.00
2023-01-12T08:51:49.104Z,2.10
2023-01-12T08:54:19.885Z,2.10
2023-01-12T08:56:49.403Z,2.10
2023-01-12T08:59:19.388Z,2.10
2023-01-12T09:01:48.242Z,2.10
2023-01-12T09:04:17.020Z,2.10
2023-01-12T09:06:47.209Z,2.10
2023-01-12T09:09:19.362Z,2.10
2023-01-12T09:11:49.021Z,2.20
2023-01-12T09:14:18.831Z,2.10
2023-01-12T09:16:47.221Z,2.20
2023-01-12T09:19:15.875Z,2.20
2023-01-12T09:21:44.865Z,2.20
2023-01-12T09:24:14.774Z,2.30
2023-01-12T09:26:47.315Z,2.30
2023-01-12T09:29:16.098Z,2.30
2023-01-12T09:31:47.264Z,2.30
2023-01-12T09:34:16.026Z,2.30
2023-01-12T09:36:44.931Z,2.30
2023-01-12T09:39:32.768Z,2.30
2023-01-12T09:42:25.678Z,2.40
2023-01-12T09:45:20.248Z,2.30
2023-01-12T09:47:53.935Z,2.40
2023-01-12T09:50:26.569Z,2.40
2023-01-12T09:52:59.119Z,2.40
2023-01-12T09:55:30.857Z,2.40
2023-01-12T09:58:15.790Z,2.30
2023-01-12T10:00:44.529Z,2.40
2023-01-12T10:03:21.579Z,2.40
2023-01-12T10:05:52.677Z,2.40
2023-01-12T10:08:29.808Z,2.40
2023-01-12T10:11:16.628Z,2.50
2023-01-12T10:14:20.267Z,2.50
2023-01-12T10:17:07.384Z,2.60
2023-01-12T10:19:42.182Z,2.50
2023-01-12T10:22:36.983Z,2.60
2023-01-12T10:25:20.892Z,2.60
2023-01-12T10:27:50.991Z,2.60
2023-01-12T10:30:25.801Z,2.60
2023-01-12T10:32:54.388Z,2.60
2023-01-12T10:35:25.436Z,2.60
2023-01-12T10:37:56.529Z,2.60
2023-01-12T10:40:31.112Z,2.60
2023-01-12T10:43:24.266Z,2.70
2023-01-12T10:46:15.542Z,2.70
2023-01-12T10:48:47.279Z,2.70
2023-01-12T10:51:23.579Z,2.80
2023-01-12T10:53:56.012Z,2.80
2023-01-12T10:56:29.998Z,2.80
2023-01-12T10:59:03.128Z,2.70
2023-01-12T11:01:47.251Z,2.70
2023-01-12T11:04:20.709Z,2.70
2023-01-12T11:07:02.209Z,2.80
2023-01-12T11:09:32.989Z,2.80
2023-01-12T11:12:03.784Z,2.80
2023-01-12T11:14:34.529Z,2.70
2023-01-12T11:17:30.762Z,2.80
2023-01-12T11:20:01.882Z,2.80
2023-01-12T11:22:36.272Z,2.80
2023-01-12T11:25:12.311Z,2.80
2023-01-12T11:27:46.147Z,2.80
2023-01-12T11:30:21.058Z,2.80
2023-01-12T11:32:58.157Z,2.80
2023-01-12T11:35:35.255Z,2.80
2023-01-12T11:38:12.923Z,2.90
2023-01-12T11:40:43.026Z,2.90
2023-01-12T11:43:45.934Z,2.90
2023-01-12T11:46:20.326Z,3.00
2023-01-12T11:48:56.587Z,3.00
2023-01-12T11:51:25.768Z,3.00
2023-01-12T11:53:55.237Z,3.00
2023-01-12T11:56:54.533Z,3.00
2023-01-12T11:59:28.240Z,3.00
2023-01-12T12:02:06.445Z,3.00
2023-01-12T12:04:50.682Z,3.00
2023-01-12T12:07:36.441Z,3.00
2023-01-12T12:10:21.264Z,3.00
2023-01-12T12:13:20.855Z,3.00
2023-01-12T12:15:57.325Z,3.00
2023-01-12T12:18:39.515Z,3.00
2023-01-12T12:21:18.809Z,3.10
2023-01-12T12:23:58.184Z,3.10
2023-01-12T12:26:32.136Z,3.10
2023-01-12T12:29:25.336Z,3.10
2023-01-12T12:32:15.939Z,3.10
2023-01-12T12:35:12.152Z,3.20
2023-01-12T12:37:52.627Z,3.20
2023-01-12T12:40:57.412Z,3.20
2023-01-12T12:44:03.469Z,3.20
2023-01-12T12:46:39.819Z,3.20
2023-01-12T12:49:12.187Z,3.20
2023-01-12T12:51:41.809Z,3.20
2023-01-12T12:54:17.183Z,3.20
2023-01-12T12:56:47.296Z,3.20
2023-01-12T12:59:51.203Z,3.20
2023-01-12T13:02:40.635Z,3.20
2023-01-12T13:05:11.371Z,3.30
2023-01-12T13:07:45.464Z,3.20
2023-01-12T13:10:31.213Z,3.30
2023-01-12T13:13:26.364Z,3.30
2023-01-12T13:16:29.534Z,3.40
2023-01-12T13:19:12.886Z,3.30
2023-01-12T13:21:58.189Z,3.30
2023-01-12T13:24:43.398Z,3.40
2023-01-12T13:27:52.419Z,3.40
2023-01-12T13:30:38.767Z,3.40
2023-01-12T13:33:24.230Z,3.50
2023-01-12T13:36:12.203Z,3.40
2023-01-12T13:39:00.691Z,3.40
2023-01-12T13:41:50.143Z,3.40
2023-01-12T13:44:25.785Z,3.40
2023-01-12T13:47:02.914Z,3.40
2023-01-12T13:49:34.123Z,3.40
2023-01-12T13:52:05.533Z,3.40
2023-01-12T13:54:35.169Z,3.40
2023-01-12T13:57:06.820Z,3.40
2023-01-12T13:59:36.920Z,3.40
2023-01-12T14:02:05.849Z,3.40
2023-01-12T14:05:02.027Z,3.40
2023-01-12T14:07:45.631Z,3.40
2023-01-12T14:10:28.605Z,3.40
2023-01-12T14:13:38.178Z,3.40
2023-01-12T14:16:31.165Z,3.30
2023-01-12T14:19:00.028Z,3.40
2023-01-12T14:21:31.843Z,3.40
2023-01-12T14:24:16.654Z,3.50
2023-01-12T14:26:45.303Z,3.40
2023-01-12T14:29:14.024Z,3.40
2023-01-12T14:31:46.004Z,3.40
2023-01-12T14:34:27.856Z,3.50
2023-01-12T14:36:57.495Z,3.50
2023-01-12T14:39:29.148Z,3.50
2023-01-12T14:42:16.381Z,3.50
2023-01-12T14:45:09.133Z,3.50
2023-01-12T14:47:39.285Z,3.50
2023-01-12T14:50:19.359Z,3.50
2023-01-12T14:52:49.457Z,3.50
2023-01-12T14:55:20.661Z,3.60
2023-01-12T14:57:51.865Z,3.60
2023-01-12T15:00:24.105Z,3.60
2023-01-12T15:02:56.917Z,3.60
2023-01-12T15:05:27.479Z,3.50
2023-01-12T15:07:58.885Z,3.50
2023-01-12T15:10:30.838Z,3.60
2023-01-12T15:13:00.833Z,3.60
2023-01-12T15:15:52.351Z,3.50
2023-01-12T15:18:39.994Z,3.50
2023-01-12T15:21:28.579Z,3.60
2023-01-12T15:24:29.285Z,3.60
2023-01-12T15:27:06.111Z,3.60
2023-01-12T15:29:35.201Z,3.60
2023-01-12T15:32:04.104Z,3.60
2023-01-12T15:34:34.699Z,3.60
2023-01-12T15:37:03.281Z,3.70
2023-01-12T15:39:31.998Z,3.70
2023-01-12T15:42:20.073Z,3.70
2023-01-12T15:44:50.616Z,3.70
2023-01-12T15:47:21.264Z,3.80
2023-01-12T15:49:53.512Z,3.80
2023-01-12T15:52:24.257Z,3.80
2023-01-12T15:54:54.680Z,3.80
2023-01-12T15:57:24.091Z,3.80
2023-01-12T15:59:52.695Z,3.90
2023-01-12T16:02:32.954Z,3.80
2023-01-12T16:05:03.098Z,3.80
2023-01-12T16:07:31.833Z,3.80
2023-01-12T16:10:00.434Z,3.80
2023-01-12T16:12:29.057Z,3.70
2023-01-12T16:14:58.869Z,3.80
2023-01-12T16:17:27.711Z,3.80
2023-01-12T16:19:56.321Z,3.80
2023-01-12T16:22:28.235Z,3.90
2023-01-12T16:24:57.894Z,3.80
2023-01-12T16:27:26.973Z,3.90
2023-01-12T16:29:56.150Z,3.90
2023-01-12T16:32:26.520Z,3.90
2023-01-12T16:34:55.504Z,3.90
2023-01-12T16:37:27.765Z,3.90
2023-01-12T16:39:56.805Z,3.90
2023-01-12T16:42:25.360Z,3.90
2023-01-12T16:44:54.007Z,3.90
2023-01-12T16:47:24.699Z,3.90
2023-01-12T16:49:53.748Z,3.90
2023-01-12T16:52:23.701Z,3.90
2023-01-12T16:54:53.720Z,4.00
2023-01-12T16:57:22.359Z,4.00
2023-01-12T16:59:51.532Z,4.00
2023-01-12T17:02:20.860Z,4.00
2023-01-12T17:04:52.345Z,4.00
2023-01-12T17:07:21.516Z,4.00
2023-01-12T17:09:50.232Z,4.00
2023-01-12T17:12:20.662Z,4.00
2023-01-12T17:14:49.460Z,4.00
2023-01-12T17:17:18.354Z,4.10
2023-01-12T17:19:47.104Z,4.10
2023-01-12T17:22:16.041Z,4.10
2023-01-12T17:24:44.856Z,4.00
2023-01-12T17:27:14.696Z,4.10
2023-01-12T17:29:45.299Z,4.10
2023-01-12T17:32:14.172Z,4.10
2023-01-12T17:34:43.467Z,4.10
2023-01-12T17:37:12.694Z,4.20
2023-01-12T17:39:43.296Z,4.20
2023-01-12T17:42:30.722Z,4.20
2023-01-12T17:45:00.967Z,4.20
2023-01-12T17:47:29.584Z,4.20
2023-01-12T17:49:58.335Z,4.20
2023-01-12T17:52:27.482Z,4.20
2023-01-12T17:54:56.096Z,4.20
2023-01-12T17:57:24.680Z,4.20
2023-01-12T17:59:53.326Z,4.20
2023-01-12T18:02:23.446Z,4.20
2023-01-12T18:04:52.061Z,4.30
2023-01-12T18:07:20.805Z,4.30
2023-01-12T18:09:49.480Z,4.30
2023-01-12T18:12:21.521Z,4.30
2023-01-12T18:14:50.274Z,4.40
2023-01-12T18:17:19.241Z,4.40
2023-01-12T18:19:49.262Z,4.40
2023-01-12T18:22:17.970Z,4.40
2023-01-12T18:24:46.582Z,4.40
2023-01-12T18:27:15.333Z,4.50
2023-01-12T18:29:44.010Z,4.50
2023-01-12T18:32:12.716Z,4.50
2023-01-12T18:34:42.242Z,4.50
2023-01-12T18:37:13.740Z,4.40
2023-01-12T18:39:44.202Z,4.50
2023-01-12T18:42:44.846Z,4.50
2023-01-12T18:45:13.806Z,4.50
2023-01-12T18:47:59.914Z,4.50
2023-01-12T18:50:47.149Z,4.50
2023-01-12T18:53:31.788Z,4.50
2023-01-12T18:56:03.859Z,4.50
2023-01-12T18:58:34.403Z,4.50
2023-01-12T19:01:05.243Z,4.50
2023-01-12T19:03:34.236Z,4.50
2023-01-12T19:06:20.270Z,4.40
2023-01-12T19:09:08.224Z,4.40
2023-01-12T19:11:37.119Z,4.50
2023-01-12T19:14:23.389Z,4.50
2023-01-12T19:17:09.459Z,4.50
2023-01-12T19:19:38.581Z,4.50
2023-01-12T19:22:36.227Z,4.50
2023-01-12T19:25:24.527Z,4.50
2023-01-12T19:28:10.903Z,4.50
2023-01-12T19:30:39.577Z,4.50
2023-01-12T19:33:08.732Z,4.50
2023-01-12T19:35:37.950Z,4.60
2023-01-12T19:38:06.634Z,4.50
2023-01-12T19:40:45.368Z,4.50
2023-01-12T19:43:14.661Z,4.60
2023-01-12T19:45:44.500Z,4.60
2023-01-12T19:48:14.385Z,4.60
2023-01-12T19:50:45.039Z,4.60
2023-01-12T19:53:15.877Z,4.60
2023-01-12T19:55:46.452Z,4.60
2023-01-12T19:58:15.698Z,4.60
2023-01-12T20:00:46.537Z,4.60
2023-01-12T20:03:16.117Z,4.60
2023-01-12T20:05:47.535Z,4.60
2023-01-12T20:08:16.764Z,4.70
2023-01-12T20:10:46.843Z,4.70
2023-01-12T20:13:15.836Z,4.70
2023-01-12T20:15:44.922Z,4.70
2023-01-12T20:18:13.926Z,4.70
2023-01-12T20:20:43.658Z,4.70
2023-01-12T20:23:12.087Z,4.70
2023-01-12T20:25:41.282Z,4.70
2023-01-12T20:28:13.443Z,4.70
2023-01-12T20:30:42.618Z,4.70
2023-01-12T20:33:11.756Z,4.70
2023-01-12T20:35:45.716Z,4.70
2023-01-12T20:38:16.539Z,4.70
2023-01-12T20:40:46.416Z,4.70
2023-01-12T20:43:16.464Z,4.80
2023-01-12T20:45:46.835Z,4.70
2023-01-12T20:48:15.641Z,4.80
2023-01-12T20:50:45.285Z,4.80
2023-01-12T20:53:15.067Z,4.80
2023-01-12T20:55:44.008Z,4.80
2023-01-12T20:58:12.849Z,4.80
2023-01-12T21:00:43.631Z,4.80
2023-01-12T21:03:12.452Z,4.80
2023-01-12T21:05:43.014Z,4.80
2023-01-12T21:08:11.691Z,4.80
2023-01-12T21:10:41.656Z,4.80
2023-01-12T21:13:10.338Z,4.80
2023-01-12T21:15:39.097Z,4.80
2023-01-12T21:18:09.240Z,4.80
2023-01-12T21:20:41.424Z,4.80
2023-01-12T21:23:10.058Z,4.80
2023-01-12T21:25:42.419Z,4.80
2023-01-12T21:28:11.679Z,4.80
2023-01-12T21:30:40.875Z,4.80
2023-01-12T21:33:11.568Z,4.90
2023-01-12T21:35:40.630Z,4.90
2023-01-12T21:38:09.193Z,4.90
2023-01-12T21:40:39.240Z,4.90
2023-01-12T21:43:09.622Z,4.90
2023-01-12T21:45:39.353Z,4.90
2023-01-12T21:48:09.113Z,4.90
2023-01-12T21:50:39.428Z,4.90
2023-01-12T21:53:09.116Z,4.90
2023-01-12T21:55:37.920Z,4.90
2023-01-12T21:58:06.571Z,4.90
2023-01-12T22:00:35.808Z,4.90
2023-01-12T22:03:05.343Z,4.90
2023-01-12T22:05:36.195Z,4.90
2023-01-12T22:08:06.660Z,4.90
2023-01-12T22:10:35.465Z,4.90
2023-01-12T22:13:09.990Z,5.00
2023-01-12T22:15:38.685Z,5.00
2023-01-12T22:18:07.549Z,5.00
2023-01-12T22:20:36.509Z,5.10
2023-01-12T22:23:07.699Z,5.10
2023-01-12T22:25:36.664Z,5.00
2023-01-12T22:28:05.917Z,5.00
2023-01-12T22:30:34.681Z,5.00
2023-01-12T22:33:03.314Z,5.00
2023-01-12T22:35:31.880Z,5.00
2023-01-12T22:38:01.185Z,5.00
2023-01-12T22:40:31.575Z,5.10
2023-01-12T22:43:17.328Z,5.00
2023-01-12T22:45:46.346Z,5.00
2023-01-12T22:48:15.099Z,5.00
2023-01-12T22:50:43.664Z,5.10
2023-01-12T22:53:13.379Z,5.10
2023-01-12T22:55:43.432Z,5.10
2023-01-12T22:58:12.148Z,5.10
2023-01-12T23:00:41.694Z,5.10
2023-01-12T23:03:10.937Z,5.10
2023-01-12T23:05:47.846Z,5.00
2023-01-12T23:08:18.013Z,5.10
2023-01-12T23:10:48.041Z,5.10
2023-01-12T23:13:19.897Z,5.10
2023-01-12T23:15:50.543Z,5.10
2023-01-12T23:18:21.938Z,5.10
2023-01-12T23:20:51.294Z,5.10
2023-01-12T23:23:19.925Z,5.10
2023-01-12T23:25:50.004Z,5.20
2023-01-12T23:28:18.919Z,5.10
2023-01-12T23:30:47.920Z,5.10
2023-01-12T23:33:16.946Z,5.10
2023-01-12T23:35:45.823Z,5.10
2023-01-12T23:38:17.102Z,5.10
2023-01-12T23:40:46.729Z,5.10
2023-01-12T23:43:17.205Z,5.20
2023-01-12T23:45:45.977Z,5.20
2023-01-12T23:48:14.687Z,5.20
2023-01-12T23:50:43.269Z,5.20
2023-01-12T23:53:11.873Z,5.20
2023-01-12T23:55:40.648Z,5.20
2023-01-12T23:58:09.471Z,5.30
